sensor_id;sensor_type;location;lat;lon;timestamp;P1;durP1;ratioP1;P2;durP2;ratioP2
76138;SDS011;65138;50.946;7.074;2023-02-15T00:00:21;4.65;;;3.25;;
76138;SDS011;65138;50.946;7.074;2023-02-15T00:02:47;3.97;;;3.13;;
76138;SDS011;65138;50.946;7.074;2023-02-15T00:05:13;4.97;;;3.33;;
76138;SDS011;65138;50.946;7.074;2023-02-15T00:07:39;4.70;;;3.10;;
76138;SDS011;65138;50.946;7.074;2023-02-15T00:10:04;5.63;;;3.88;;
76138;SDS011;65138;50.946;7.074;2023-02-15T00:12:31;5.07;;;3.50;;
76138;SDS011;65138;50.946;7.074;2023-02-15T00:14:56;5.13;;;3.50;;
76138;SDS011;65138;50.946;7.074;2023-02-15T00:17:22;4.60;;;2.90;;
76138;SDS011;65138;50.946;7.074;2023-02-15T00:19:48;5.05;;;3.63;;
76138;SDS011;65138;50.946;7.074;2023-02-15T00:22:14;5.05;;;2.95;;
76138;SDS011;65138;50.946;7.074;2023-02-15T00:24:39;4.28;;;3.25;;
76138;SDS011;65138;50.946;7.074;2023-02-15T00:27:05;4.78;;;3.05;;
76138;SDS011;65138;50.946;7.074;2023-02-15T00:29:30;4.80;;;2.97;;
76138;SDS011;65138;50.946;7.074;2023-02-15T00:31:56;5.03;;;3.63;;
76138;SDS011;65138;50.946;7.074;2023-02-15T00:34:23;4.32;;;3.17;;
76138;SDS011;65138;50.946;7.074;2023-02-15T00:36:50;4.68;;;3.72;;
76138;SDS011;65138;50.946;7.074;2023-02-15T00:39:16;5.32;;;3.47;;
76138;SDS011;65138;50.946;7.074;2023-02-15T00:41:43;4.75;;;3.20;;
76138;SDS011;65138;50.946;7.074;2023-02-15T00:44:09;5.28;;;3.17;;
76138;SDS011;65138;50.946;7.074;2023-02-15T00:46:35;6.20;;;3.85;;
76138;SDS011;65138;50.946;7.074;2023-02-15T00:49:00;5.40;;;3.50;;
76138;SDS011;65138;50.946;7.074;2023-02-15T00:51:27;5.15;;;3.38;;
76138;SDS011;65138;50.946;7.074;2023-02-15T00:53:53;4.93;;;3.50;;
76138;SDS011;65138;50.946;7.074;2023-02-15T00:56:18;5.35;;;3.35;;
76138;SDS011;65138;50.946;7.074;2023-02-15T00:58:44;4.65;;;3.25;;
76138;SDS011;65138;50.946;7.074;2023-02-15T01:01:11;4.07;;;3.20;;
76138;SDS011;65138;50.946;7.074;2023-02-15T01:03:38;4.90;;;3.40;;
76138;SDS011;65138;50.946;7.074;2023-02-15T01:06:08;4.70;;;3.25;;
76138;SDS011;65138;50.946;7.074;2023-02-15T01:08:34;5.30;;;3.67;;
76138;SDS011;65138;50.946;7.074;2023-02-15T01:11:04;5.43;;;3.53;;
76138;SDS011;65138;50.946;7.074;2023-02-15T01:13:31;5.03;;;3.28;;
76138;SDS011;65138;50.946;7.074;2023-02-15T01:15:58;4.50;;;2.92;;
76138;SDS011;65138;50.946;7.074;2023-02-15T01:18:25;4.82;;;3.25;;
76138;SDS011;65138;50.946;7.074;2023-02-15T01:20:51;4.85;;;3.50;;
76138;SDS011;65138;50.946;7.074;2023-02-15T01:23:17;5.15;;;4.03;;
76138;SDS011;65138;50.946;7.074;2023-02-15T01:25:45;4.55;;;3.38;;
76138;SDS011;65138;50.946;7.074;2023-02-15T01:28:10;4.28;;;3.13;;
76138;SDS011;65138;50.946;7.074;2023-02-15T01:30:37;4.38;;;2.95;;
76138;SDS011;65138;50.946;7.074;2023-02-15T01:33:03;5.63;;;3.70;;
76138;SDS011;65138;50.946;7.074;2023-02-15T01:35:30;5.22;;;3.10;;
76138;SDS011;65138;50.946;7.074;2023-02-15T01:37:56;4.65;;;3.00;;
76138;SDS011;65138;50.946;7.074;2023-02-15T01:40:22;5.00;;;3.38;;
76138;SDS011;65138;50.946;7.074;2023-02-15T01:42:52;4.82;;;3.33;;
76138;SDS011;65138;50.946;7.074;2023-02-15T01:45:20;4.53;;;3.20;;
76138;SDS011;65138;50.946;7.074;2023-02-15T01:53:12;5.97;;;3.13;;
76138;SDS011;65138;50.946;7.074;2023-02-15T01:55:53;4.60;;;3.28;;
76138;SDS011;65138;50.946;7.074;2023-02-15T01:58:24;4.75;;;3.28;;
76138;SDS011;65138;50.946;7.074;2023-02-15T02:00:52;4.72;;;3.45;;
76138;SDS011;65138;50.946;7.074;2023-02-15T02:03:21;4.75;;;3.40;;
76138;SDS011;65138;50.946;7.074;2023-02-15T02:05:57;5.05;;;3.47;;
76138;SDS011;65138;50.946;7.074;2023-02-15T02:08:22;4.75;;;3.13;;
76138;SDS011;65138;50.946;7.074;2023-02-15T02:10:49;4.70;;;3.17;;
76138;SDS011;65138;50.946;7.074;2023-02-15T02:13:14;5.40;;;3.60;;
76138;SDS011;65138;50.946;7.074;2023-02-15T02:15:47;4.55;;;3.05;;
76138;SDS011;65138;50.946;7.074;2023-02-15T02:18:41;5.45;;;3.50;;
76138;SDS011;65138;50.946;7.074;2023-02-15T02:23:57;5.43;;;3.25;;
76138;SDS011;65138;50.946;7.074;2023-02-15T02:26:34;4.95;;;3.50;;
76138;SDS011;65138;50.946;7.074;2023-02-15T02:34:48;3.90;;;2.95;;
76138;SDS011;65138;50.946;7.074;2023-02-15T02:37:37;5.55;;;3.35;;
76138;SDS011;65138;50.946;7.074;2023-02-15T02:40:26;3.67;;;2.65;;
76138;SDS011;65138;50.946;7.074;2023-02-15T02:43:15;4.93;;;3.45;;
76138;SDS011;65138;50.946;7.074;2023-02-15T02:46:00;4.40;;;3.10;;
76138;SDS011;65138;50.946;7.074;2023-02-15T02:48:32;5.13;;;3.40;;
76138;SDS011;65138;50.946;7.074;2023-02-15T02:50:58;5.03;;;3.28;;
76138;SDS011;65138;50.946;7.074;2023-02-15T02:53:24;5.47;;;3.25;;
76138;SDS011;65138;50.946;7.074;2023-02-15T02:55:56;4.93;;;3.40;;
76138;SDS011;65138;50.946;7.074;2023-02-15T02:58:42;4.97;;;3.38;;
76138;SDS011;65138;50.946;7.074;2023-02-15T03:04:03;3.58;;;2.55;;
76138;SDS011;65138;50.946;7.074;2023-02-15T03:09:16;4.60;;;3.05;;
76138;SDS011;65138;50.946;7.074;2023-02-15T03:11:48;3.97;;;3.20;;
76138;SDS011;65138;50.946;7.074;2023-02-15T03:14:15;4.25;;;3.00;;
76138;SDS011;65138;50.946;7.074;2023-02-15T03:16:43;3.85;;;2.70;;
76138;SDS011;65138;50.946;7.074;2023-02-15T03:19:13;4.45;;;3.40;;
76138;SDS011;65138;50.946;7.074;2023-02-15T03:22:00;4.65;;;3.13;;
76138;SDS011;65138;50.946;7.074;2023-02-15T03:24:44;4.07;;;3.10;;
76138;SDS011;65138;50.946;7.074;2023-02-15T03:29:46;5.22;;;3.40;;
76138;SDS011;65138;50.946;7.074;2023-02-15T03:32:15;4.25;;;3.42;;
76138;SDS011;65138;50.946;7.074;2023-02-15T03:34:42;4.82;;;2.83;;
76138;SDS011;65138;50.946;7.074;2023-02-15T03:43:07;5.10;;;3.53;;
76138;SDS011;65138;50.946;7.074;2023-02-15T03:45:46;3.88;;;3.00;;
76138;SDS011;65138;50.946;7.074;2023-02-15T03:48:23;5.10;;;3.00;;
76138;SDS011;65138;50.946;7.074;2023-02-15T03:50:52;5.13;;;3.70;;
76138;SDS011;65138;50.946;7.074;2023-02-15T03:53:42;4.07;;;2.50;;
76138;SDS011;65138;50.946;7.074;2023-02-15T03:56:10;3.75;;;2.90;;
76138;SDS011;65138;50.946;7.074;2023-02-15T03:58:36;4.53;;;3.42;;
76138;SDS011;65138;50.946;7.074;2023-02-15T04:01:24;5.28;;;3.10;;
76138;SDS011;65138;50.946;7.074;2023-02-15T04:06:38;4.40;;;2.65;;
76138;SDS011;65138;50.946;7.074;2023-02-15T04:09:03;5.57;;;3.42;;
76138;SDS011;65138;50.946;7.074;2023-02-15T04:11:48;4.57;;;3.28;;
76138;SDS011;65138;50.946;7.074;2023-02-15T04:14:13;4.45;;;2.95;;
76138;SDS011;65138;50.946;7.074;2023-02-15T04:16:57;4.43;;;2.97;;
76138;SDS011;65138;50.946;7.074;2023-02-15T04:19:23;4.47;;;2.60;;
76138;SDS011;65138;50.946;7.074;2023-02-15T04:22:07;4.57;;;2.90;;
76138;SDS011;65138;50.946;7.074;2023-02-15T04:24:52;4.95;;;3.17;;
76138;SDS011;65138;50.946;7.074;2023-02-15T04:27:43;4.78;;;3.03;;
76138;SDS011;65138;50.946;7.074;2023-02-15T04:30:11;4.95;;;3.17;;
76138;SDS011;65138;50.946;7.074;2023-02-15T04:32:38;3.95;;;2.70;;
76138;SDS011;65138;50.946;7.074;2023-02-15T04:35:04;4.30;;;2.92;;
76138;SDS011;65138;50.946;7.074;2023-02-15T04:37:30;4.15;;;2.97;;
76138;SDS011;65138;50.946;7.074;2023-02-15T04:39:56;4.88;;;3.28;;
76138;SDS011;65138;50.946;7.074;2023-02-15T04:42:24;4.90;;;2.78;;
76138;SDS011;65138;50.946;7.074;2023-02-15T04:44:50;4.35;;;2.72;;
76138;SDS011;65138;50.946;7.074;2023-02-15T04:47:16;4.28;;;2.83;;
76138;SDS011;65138;50.946;7.074;2023-02-15T04:49:42;3.88;;;2.75;;
76138;SDS011;65138;50.946;7.074;2023-02-15T04:52:08;5.60;;;3.08;;
76138;SDS011;65138;50.946;7.074;2023-02-15T04:54:34;3.25;;;2.63;;
76138;SDS011;65138;50.946;7.074;2023-02-15T04:56:59;4.07;;;2.85;;
76138;SDS011;65138;50.946;7.074;2023-02-15T04:59:25;4.15;;;2.95;;
76138;SDS011;65138;50.946;7.074;2023-02-15T05:01:50;4.25;;;3.13;;
76138;SDS011;65138;50.946;7.074;2023-02-15T05:04:16;4.25;;;2.70;;
76138;SDS011;65138;50.946;7.074;2023-02-15T05:06:41;4.38;;;3.20;;
76138;SDS011;65138;50.946;7.074;2023-02-15T05:09:07;3.47;;;2.42;;
76138;SDS011;65138;50.946;7.074;2023-02-15T05:11:32;3.70;;;2.75;;
76138;SDS011;65138;50.946;7.074;2023-02-15T05:13:58;4.20;;;2.65;;
76138;SDS011;65138;50.946;7.074;2023-02-15T05:16:24;4.50;;;2.70;;
76138;SDS011;65138;50.946;7.074;2023-02-15T05:18:50;4.25;;;2.83;;
76138;SDS011;65138;50.946;7.074;2023-02-15T05:21:16;4.18;;;2.50;;
76138;SDS011;65138;50.946;7.074;2023-02-15T05:23:41;3.15;;;2.45;;
76138;SDS011;65138;50.946;7.074;2023-02-15T05:26:10;3.40;;;2.38;;
76138;SDS011;65138;50.946;7.074;2023-02-15T05:28:55;3.75;;;2.67;;
76138;SDS011;65138;50.946;7.074;2023-02-15T05:31:21;3.17;;;2.33;;
76138;SDS011;65138;50.946;7.074;2023-02-15T05:33:47;3.90;;;2.60;;
76138;SDS011;65138;50.946;7.074;2023-02-15T05:36:12;3.60;;;2.45;;
76138;SDS011;65138;50.946;7.074;2023-02-15T05:38:38;5.55;;;3.15;;
76138;SDS011;65138;50.946;7.074;2023-02-15T05:41:04;5.82;;;2.85;;
76138;SDS011;65138;50.946;7.074;2023-02-15T05:43:31;8.25;;;4.78;;
76138;SDS011;65138;50.946;7.074;2023-02-15T05:45:57;11.15;;;6.40;;
76138;SDS011;65138;50.946;7.074;2023-02-15T05:48:24;11.75;;;6.85;;
76138;SDS011;65138;50.946;7.074;2023-02-15T05:51:00;11.85;;;6.55;;
76138;SDS011;65138;50.946;7.074;2023-02-15T05:53:29;7.00;;;4.63;;
76138;SDS011;65138;50.946;7.074;2023-02-15T05:55:56;8.50;;;5.05;;
76138;SDS011;65138;50.946;7.074;2023-02-15T05:58:27;6.65;;;4.45;;
76138;SDS011;65138;50.946;7.074;2023-02-15T06:00:55;6.60;;;4.05;;
76138;SDS011;65138;50.946;7.074;2023-02-15T06:03:21;6.00;;;3.88;;
76138;SDS011;65138;50.946;7.074;2023-02-15T06:05:47;5.93;;;3.47;;
76138;SDS011;65138;50.946;7.074;2023-02-15T06:08:13;6.40;;;3.53;;
76138;SDS011;65138;50.946;7.074;2023-02-15T06:10:39;3.60;;;3.08;;
76138;SDS011;65138;50.946;7.074;2023-02-15T06:13:05;4.60;;;3.00;;
76138;SDS011;65138;50.946;7.074;2023-02-15T06:15:31;4.70;;;2.92;;
76138;SDS011;65138;50.946;7.074;2023-02-15T06:17:57;4.13;;;3.17;;
76138;SDS011;65138;50.946;7.074;2023-02-15T06:20:23;3.92;;;2.60;;
76138;SDS011;65138;50.946;7.074;2023-02-15T06:22:49;4.32;;;2.72;;
76138;SDS011;65138;50.946;7.074;2023-02-15T06:25:14;4.13;;;2.67;;
76138;SDS011;65138;50.946;7.074;2023-02-15T06:27:41;5.75;;;3.33;;
76138;SDS011;65138;50.946;7.074;2023-02-15T06:30:07;3.53;;;2.72;;
76138;SDS011;65138;50.946;7.074;2023-02-15T06:32:34;4.30;;;2.70;;
76138;SDS011;65138;50.946;7.074;2023-02-15T06:35:00;4.35;;;2.45;;
76138;SDS011;65138;50.946;7.074;2023-02-15T06:37:26;3.60;;;2.60;;
76138;SDS011;65138;50.946;7.074;2023-02-15T06:39:51;3.92;;;2.63;;
76138;SDS011;65138;50.946;7.074;2023-02-15T06:42:17;4.57;;;2.55;;
76138;SDS011;65138;50.946;7.074;2023-02-15T06:44:43;4.25;;;2.55;;
76138;SDS011;65138;50.946;7.074;2023-02-15T06:47:09;4.22;;;2.47;;
76138;SDS011;65138;50.946;7.074;2023-02-15T06:49:35;3.65;;;2.70;;
76138;SDS011;65138;50.946;7.074;2023-02-15T06:52:02;7.55;;;3.97;;
76138;SDS011;65138;50.946;7.074;2023-02-15T06:54:28;8.45;;;5.32;;
76138;SDS011;65138;50.946;7.074;2023-02-15T06:56:54;8.38;;;4.90;;
76138;SDS011;65138;50.946;7.074;2023-02-15T06:59:19;12.27;;;4.93;;
76138;SDS011;65138;50.946;7.074;2023-02-15T07:01:45;5.80;;;3.70;;
76138;SDS011;65138;50.946;7.074;2023-02-15T07:04:11;6.50;;;3.60;;
76138;SDS011;65138;50.946;7.074;2023-02-15T07:06:36;5.60;;;3.30;;
76138;SDS011;65138;50.946;7.074;2023-02-15T07:09:02;5.15;;;3.05;;
76138;SDS011;65138;50.946;7.074;2023-02-15T07:11:29;4.97;;;3.13;;
76138;SDS011;65138;50.946;7.074;2023-02-15T07:14:14;8.77;;;5.15;;
76138;SDS011;65138;50.946;7.074;2023-02-15T07:16:40;12.57;;;5.57;;
76138;SDS011;65138;50.946;7.074;2023-02-15T07:19:05;7.72;;;4.43;;
76138;SDS011;65138;50.946;7.074;2023-02-15T07:21:32;5.78;;;3.55;;
76138;SDS011;65138;50.946;7.074;2023-02-15T07:23:58;5.82;;;3.47;;
76138;SDS011;65138;50.946;7.074;2023-02-15T07:26:24;5.57;;;3.42;;
76138;SDS011;65138;50.946;7.074;2023-02-15T07:28:50;5.97;;;3.10;;
76138;SDS011;65138;50.946;7.074;2023-02-15T07:31:16;4.68;;;3.10;;
76138;SDS011;65138;50.946;7.074;2023-02-15T07:33:41;5.13;;;3.20;;
76138;SDS011;65138;50.946;7.074;2023-02-15T07:36:07;4.60;;;2.85;;
76138;SDS011;65138;50.946;7.074;2023-02-15T07:38:36;4.20;;;2.13;;
76138;SDS011;65138;50.946;7.074;2023-02-15T07:41:06;3.75;;;2.50;;
76138;SDS011;65138;50.946;7.074;2023-02-15T07:46:01;2.85;;;1.98;;
76138;SDS011;65138;50.946;7.074;2023-02-15T07:48:32;5.00;;;2.47;;
76138;SDS011;65138;50.946;7.074;2023-02-15T07:50:58;3.58;;;2.30;;
76138;SDS011;65138;50.946;7.074;2023-02-15T07:53:25;3.45;;;2.22;;
76138;SDS011;65138;50.946;7.074;2023-02-15T07:55:50;4.00;;;2.85;;
76138;SDS011;65138;50.946;7.074;2023-02-15T07:58:17;3.75;;;2.92;;
76138;SDS011;65138;50.946;7.074;2023-02-15T08:00:43;3.83;;;2.80;;
76138;SDS011;65138;50.946;7.074;2023-02-15T08:03:26;4.35;;;2.65;;
76138;SDS011;65138;50.946;7.074;2023-02-15T08:05:57;4.25;;;2.60;;
76138;SDS011;65138;50.946;7.074;2023-02-15T08:13:45;3.60;;;2.40;;
76138;SDS011;65138;50.946;7.074;2023-02-15T08:16:19;3.20;;;2.38;;
76138;SDS011;65138;50.946;7.074;2023-02-15T08:18:48;4.55;;;2.58;;
76138;SDS011;65138;50.946;7.074;2023-02-15T08:21:14;3.47;;;2.38;;
76138;SDS011;65138;50.946;7.074;2023-02-15T08:23:40;6.38;;;2.65;;
76138;SDS011;65138;50.946;7.074;2023-02-15T08:26:06;4.45;;;2.92;;
76138;SDS011;65138;50.946;7.074;2023-02-15T08:28:31;3.92;;;2.40;;
76138;SDS011;65138;50.946;7.074;2023-02-15T08:31:07;4.15;;;2.50;;
76138;SDS011;65138;50.946;7.074;2023-02-15T08:33:37;4.20;;;2.75;;
76138;SDS011;65138;50.946;7.074;2023-02-15T08:36:05;4.10;;;2.33;;
76138;SDS011;65138;50.946;7.074;2023-02-15T08:38:39;4.10;;;2.50;;
76138;SDS011;65138;50.946;7.074;2023-02-15T08:41:40;3.15;;;2.20;;
76138;SDS011;65138;50.946;7.074;2023-02-15T08:44:02;3.15;;;2.30;;
76138;SDS011;65138;50.946;7.074;2023-02-15T08:46:31;3.38;;;2.38;;
76138;SDS011;65138;50.946;7.074;2023-02-15T08:48:57;3.88;;;2.33;;
76138;SDS011;65138;50.946;7.074;2023-02-15T08:51:24;3.42;;;2.40;;
76138;SDS011;65138;50.946;7.074;2023-02-15T08:53:52;3.63;;;2.25;;
76138;SDS011;65138;50.946;7.074;2023-02-15T08:56:23;2.92;;;2.20;;
76138;SDS011;65138;50.946;7.074;2023-02-15T08:58:51;2.58;;;1.75;;
76138;SDS011;65138;50.946;7.074;2023-02-15T09:01:18;3.03;;;2.13;;
76138;SDS011;65138;50.946;7.074;2023-02-15T09:03:46;2.22;;;1.95;;
76138;SDS011;65138;50.946;7.074;2023-02-15T09:06:14;2.78;;;2.00;;
76138;SDS011;65138;50.946;7.074;2023-02-15T09:08:41;3.15;;;2.10;;
76138;SDS011;65138;50.946;7.074;2023-02-15T09:11:08;2.58;;;1.73;;
76138;SDS011;65138;50.946;7.074;2023-02-15T09:13:36;3.17;;;2.10;;
76138;SDS011;65138;50.946;7.074;2023-02-15T09:16:03;2.22;;;1.80;;
76138;SDS011;65138;50.946;7.074;2023-02-15T09:18:32;2.00;;;1.42;;
76138;SDS011;65138;50.946;7.074;2023-02-15T09:21:08;3.65;;;2.28;;
76138;SDS011;65138;50.946;7.074;2023-02-15T09:23:38;2.92;;;1.83;;
76138;SDS011;65138;50.946;7.074;2023-02-15T09:26:05;2.65;;;1.95;;
76138;SDS011;65138;50.946;7.074;2023-02-15T09:28:35;2.58;;;1.60;;
76138;SDS011;65138;50.946;7.074;2023-02-15T09:31:11;2.30;;;1.65;;
76138;SDS011;65138;50.946;7.074;2023-02-15T09:33:38;2.22;;;1.60;;
76138;SDS011;65138;50.946;7.074;2023-02-15T09:36:06;2.05;;;1.48;;
76138;SDS011;65138;50.946;7.074;2023-02-15T09:38:39;2.80;;;1.73;;
76138;SDS011;65138;50.946;7.074;2023-02-15T09:54:32;2.25;;;1.90;;
76138;SDS011;65138;50.946;7.074;2023-02-15T09:57:20;2.03;;;1.20;;
76138;SDS011;65138;50.946;7.074;2023-02-15T10:00:03;2.40;;;1.77;;
76138;SDS011;65138;50.946;7.074;2023-02-15T10:02:51;2.15;;;1.40;;
76138;SDS011;65138;50.946;7.074;2023-02-15T10:08:23;2.00;;;1.48;;
76138;SDS011;65138;50.946;7.074;2023-02-15T10:11:12;2.22;;;1.48;;
76138;SDS011;65138;50.946;7.074;2023-02-15T10:14:06;1.95;;;1.50;;
76138;SDS011;65138;50.946;7.074;2023-02-15T10:17:21;1.98;;;1.38;;
76138;SDS011;65138;50.946;7.074;2023-02-15T10:19:56;1.98;;;1.45;;
76138;SDS011;65138;50.946;7.074;2023-02-15T10:28:42;2.30;;;1.67;;
76138;SDS011;65138;50.946;7.074;2023-02-15T10:38:40;3.42;;;2.78;;
76138;SDS011;65138;50.946;7.074;2023-02-15T10:41:31;3.63;;;2.45;;
76138;SDS011;65138;50.946;7.074;2023-02-15T10:44:20;2.50;;;2.00;;
76138;SDS011;65138;50.946;7.074;2023-02-15T10:47:14;3.78;;;1.98;;
76138;SDS011;65138;50.946;7.074;2023-02-15T10:52:48;2.78;;;2.10;;
76138;SDS011;65138;50.946;7.074;2023-02-15T10:55:37;3.83;;;1.70;;
76138;SDS011;65138;50.946;7.074;2023-02-15T10:58:10;2.53;;;1.92;;
76138;SDS011;65138;50.946;7.074;2023-02-15T11:03:20;2.30;;;1.83;;
76138;SDS011;65138;50.946;7.074;2023-02-15T11:06:08;2.60;;;1.95;;
76138;SDS011;65138;50.946;7.074;2023-02-15T11:08:47;2.92;;;1.50;;
76138;SDS011;65138;50.946;7.074;2023-02-15T11:11:21;2.30;;;1.73;;
76138;SDS011;65138;50.946;7.074;2023-02-15T11:13:51;2.28;;;1.60;;
76138;SDS011;65138;50.946;7.074;2023-02-15T11:16:22;6.03;;;1.63;;
76138;SDS011;65138;50.946;7.074;2023-02-15T11:18:59;3.78;;;1.85;;
76138;SDS011;65138;50.946;7.074;2023-02-15T11:21:34;2.80;;;1.80;;
76138;SDS011;65138;50.946;7.074;2023-02-15T11:24:09;2.78;;;1.95;;
76138;SDS011;65138;50.946;7.074;2023-02-15T11:26:43;2.30;;;1.80;;
76138;SDS011;65138;50.946;7.074;2023-02-15T11:29:18;3.85;;;2.70;;
76138;SDS011;65138;50.946;7.074;2023-02-15T11:31:53;3.28;;;2.35;;
76138;SDS011;65138;50.946;7.074;2023-02-15T11:34:24;3.00;;;2.03;;
76138;SDS011;65138;50.946;7.074;2023-02-15T11:36:58;2.35;;;1.77;;
76138;SDS011;65138;50.946;7.074;2023-02-15T11:39:29;3.10;;;1.85;;
76138;SDS011;65138;50.946;7.074;2023-02-15T11:41:58;2.90;;;1.88;;
76138;SDS011;65138;50.946;7.074;2023-02-15T11:44:27;2.28;;;1.70;;
76138;SDS011;65138;50.946;7.074;2023-02-15T11:47:00;2.35;;;1.90;;
76138;SDS011;65138;50.946;7.074;2023-02-15T11:51:57;3.00;;;2.28;;
76138;SDS011;65138;50.946;7.074;2023-02-15T11:54:28;2.55;;;1.92;;
76138;SDS011;65138;50.946;7.074;2023-02-15T11:57:00;2.38;;;2.00;;
76138;SDS011;65138;50.946;7.074;2023-02-15T11:59:50;2.95;;;1.85;;
76138;SDS011;65138;50.946;7.074;2023-02-15T12:02:21;2.55;;;1.67;;
76138;SDS011;65138;50.946;7.074;2023-02-15T12:04:48;2.47;;;1.85;;
76138;SDS011;65138;50.946;7.074;2023-02-15T12:07:24;2.25;;;1.73;;
76138;SDS011;65138;50.946;7.074;2023-02-15T12:12:35;2.70;;;1.80;;
76138;SDS011;65138;50.946;7.074;2023-02-15T12:15:02;2.63;;;1.85;;
76138;SDS011;65138;50.946;7.074;2023-02-15T12:17:40;2.90;;;2.10;;
76138;SDS011;65138;50.946;7.074;2023-02-15T12:22:39;3.10;;;2.08;;
76138;SDS011;65138;50.946;7.074;2023-02-15T12:25:21;2.72;;;2.00;;
76138;SDS011;65138;50.946;7.074;2023-02-15T12:27:47;7.78;;;2.15;;
76138;SDS011;65138;50.946;7.074;2023-02-15T12:30:25;5.75;;;2.25;;
76138;SDS011;65138;50.946;7.074;2023-02-15T12:35:31;4.63;;;2.00;;
76138;SDS011;65138;50.946;7.074;2023-02-15T12:38:03;4.45;;;2.13;;
76138;SDS011;65138;50.946;7.074;2023-02-15T12:40:56;4.65;;;2.42;;
76138;SDS011;65138;50.946;7.074;2023-02-15T12:43:33;7.00;;;2.40;;
76138;SDS011;65138;50.946;7.074;2023-02-15T12:49:07;3.33;;;2.28;;
76138;SDS011;65138;50.946;7.074;2023-02-15T12:51:52;3.28;;;2.20;;
76138;SDS011;65138;50.946;7.074;2023-02-15T12:56:55;4.43;;;2.05;;
76138;SDS011;65138;50.946;7.074;2023-02-15T12:59:24;2.95;;;2.05;;
76138;SDS011;65138;50.946;7.074;2023-02-15T13:01:51;2.92;;;1.80;;
76138;SDS011;65138;50.946;7.074;2023-02-15T13:04:23;5.97;;;2.30;;
76138;SDS011;65138;50.946;7.074;2023-02-15T13:06:52;2.60;;;2.05;;
76138;SDS011;65138;50.946;7.074;2023-02-15T13:11:56;10.52;;;5.20;;
76138;SDS011;65138;50.946;7.074;2023-02-15T13:14:33;11.45;;;7.40;;
76138;SDS011;65138;50.946;7.074;2023-02-15T13:17:00;10.05;;;6.90;;
76138;SDS011;65138;50.946;7.074;2023-02-15T13:22:13;13.90;;;7.57;;
76138;SDS011;65138;50.946;7.074;2023-02-15T13:24:46;12.73;;;7.18;;
76138;SDS011;65138;50.946;7.074;2023-02-15T13:27:15;12.40;;;6.93;;
76138;SDS011;65138;50.946;7.074;2023-02-15T13:32:12;12.10;;;7.13;;
76138;SDS011;65138;50.946;7.074;2023-02-15T13:34:47;10.55;;;7.03;;
76138;SDS011;65138;50.946;7.074;2023-02-15T13:37:20;10.15;;;6.25;;
76138;SDS011;65138;50.946;7.074;2023-02-15T13:40:06;15.05;;;6.97;;
76138;SDS011;65138;50.946;7.074;2023-02-15T13:42:50;12.98;;;6.50;;
76138;SDS011;65138;50.946;7.074;2023-02-15T13:45:28;9.77;;;5.95;;
76138;SDS011;65138;50.946;7.074;2023-02-15T13:47:59;9.68;;;5.38;;
76138;SDS011;65138;50.946;7.074;2023-02-15T13:50:38;6.90;;;3.80;;
76138;SDS011;65138;50.946;7.074;2023-02-15T13:53:19;6.22;;;4.20;;
76138;SDS011;65138;50.946;7.074;2023-02-15T14:01:45;7.13;;;3.25;;
76138;SDS011;65138;50.946;7.074;2023-02-15T14:04:24;5.53;;;3.17;;
76138;SDS011;65138;50.946;7.074;2023-02-15T14:12:26;4.38;;;3.03;;
76138;SDS011;65138;50.946;7.074;2023-02-15T14:18:12;4.47;;;3.15;;
76138;SDS011;65138;50.946;7.074;2023-02-15T14:21:06;5.22;;;2.30;;
76138;SDS011;65138;50.946;7.074;2023-02-15T14:28:57;5.10;;;2.67;;
76138;SDS011;65138;50.946;7.074;2023-02-15T14:31:40;3.58;;;2.45;;
76138;SDS011;65138;50.946;7.074;2023-02-15T14:34:20;4.40;;;2.50;;
76138;SDS011;65138;50.946;7.074;2023-02-15T14:36:50;4.45;;;2.70;;
76138;SDS011;65138;50.946;7.074;2023-02-15T14:39:26;4.18;;;2.45;;
76138;SDS011;65138;50.946;7.074;2023-02-15T14:43:05;3.97;;;2.67;;
76138;SDS011;65138;50.946;7.074;2023-02-15T14:45:17;2.92;;;2.10;;
76138;SDS011;65138;50.946;7.074;2023-02-15T14:48:12;3.60;;;2.83;;
76138;SDS011;65138;50.946;7.074;2023-02-15T14:50:46;3.67;;;2.28;;
76138;SDS011;65138;50.946;7.074;2023-02-15T14:56:05;3.60;;;2.45;;
76138;SDS011;65138;50.946;7.074;2023-02-15T15:01:25;3.42;;;2.28;;
76138;SDS011;65138;50.946;7.074;2023-02-15T15:03:52;12.98;;;8.85;;
76138;SDS011;65138;50.946;7.074;2023-02-15T15:06:28;9.60;;;6.88;;
76138;SDS011;65138;50.946;7.074;2023-02-15T15:08:58;7.20;;;4.57;;
76138;SDS011;65138;50.946;7.074;2023-02-15T15:11:47;4.80;;;3.42;;
76138;SDS011;65138;50.946;7.074;2023-02-15T15:16:58;4.65;;;3.17;;
76138;SDS011;65138;50.946;7.074;2023-02-15T15:20:00;5.80;;;2.53;;
76138;SDS011;65138;50.946;7.074;2023-02-15T15:27:42;11.02;;;3.10;;
76138;SDS011;65138;50.946;7.074;2023-02-15T15:32:54;6.88;;;2.80;;
76138;SDS011;65138;50.946;7.074;2023-02-15T15:48:57;5.53;;;2.28;;
76138;SDS011;65138;50.946;7.074;2023-02-15T15:51:31;3.08;;;2.35;;
76138;SDS011;65138;50.946;7.074;2023-02-15T15:53:58;3.55;;;2.25;;
76138;SDS011;65138;50.946;7.074;2023-02-15T15:56:27;7.13;;;3.45;;
76138;SDS011;65138;50.946;7.074;2023-02-15T15:59:00;7.07;;;4.82;;
76138;SDS011;65138;50.946;7.074;2023-02-15T16:01:30;6.15;;;4.30;;
76138;SDS011;65138;50.946;7.074;2023-02-15T16:04:00;8.43;;;4.13;;
76138;SDS011;65138;50.946;7.074;2023-02-15T16:06:26;7.05;;;3.63;;
76138;SDS011;65138;50.946;7.074;2023-02-15T16:08:53;7.07;;;3.63;;
76138;SDS011;65138;50.946;7.074;2023-02-15T16:11:21;4.68;;;2.95;;
76138;SDS011;65138;50.946;7.074;2023-02-15T16:13:50;7.07;;;3.15;;
76138;SDS011;65138;50.946;7.074;2023-02-15T16:16:20;5.60;;;3.60;;
76138;SDS011;65138;50.946;7.074;2023-02-15T16:18:48;6.10;;;2.65;;
76138;SDS011;65138;50.946;7.074;2023-02-15T16:21:17;4.57;;;2.88;;
76138;SDS011;65138;50.946;7.074;2023-02-15T16:23:50;4.60;;;2.78;;
76138;SDS011;65138;50.946;7.074;2023-02-15T16:26:59;5.65;;;2.80;;
76138;SDS011;65138;50.946;7.074;2023-02-15T16:29:35;4.57;;;3.00;;
76138;SDS011;65138;50.946;7.074;2023-02-15T16:32:33;5.07;;;2.80;;
76138;SDS011;65138;50.946;7.074;2023-02-15T16:37:26;3.67;;;2.42;;
76138;SDS011;65138;50.946;7.074;2023-02-15T16:42:22;3.17;;;2.40;;
76138;SDS011;65138;50.946;7.074;2023-02-15T16:44:49;3.90;;;2.50;;
76138;SDS011;65138;50.946;7.074;2023-02-15T16:47:23;3.53;;;2.45;;
76138;SDS011;65138;50.946;7.074;2023-02-15T16:49:51;4.30;;;2.70;;
76138;SDS011;65138;50.946;7.074;2023-02-15T16:52:20;4.60;;;2.88;;
76138;SDS011;65138;50.946;7.074;2023-02-15T16:54:56;4.00;;;2.90;;
76138;SDS011;65138;50.946;7.074;2023-02-15T16:57:28;4.63;;;2.78;;
76138;SDS011;65138;50.946;7.074;2023-02-15T17:00:00;3.55;;;2.70;;
76138;SDS011;65138;50.946;7.074;2023-02-15T17:02:30;4.88;;;2.70;;
76138;SDS011;65138;50.946;7.074;2023-02-15T17:07:30;3.90;;;2.20;;
76138;SDS011;65138;50.946;7.074;2023-02-15T17:09:58;2.92;;;2.13;;
76138;SDS011;65138;50.946;7.074;2023-02-15T17:18:05;4.00;;;2.08;;
76138;SDS011;65138;50.946;7.074;2023-02-15T17:20:37;3.65;;;2.33;;
76138;SDS011;65138;50.946;7.074;2023-02-15T17:23:06;3.33;;;2.10;;
76138;SDS011;65138;50.946;7.074;2023-02-15T17:25:45;3.33;;;2.25;;
76138;SDS011;65138;50.946;7.074;2023-02-15T17:28:17;3.08;;;2.35;;
76138;SDS011;65138;50.946;7.074;2023-02-15T17:30:44;3.20;;;2.65;;
76138;SDS011;65138;50.946;7.074;2023-02-15T17:33:24;3.33;;;2.30;;
76138;SDS011;65138;50.946;7.074;2023-02-15T17:36:07;2.90;;;2.15;;
76138;SDS011;65138;50.946;7.074;2023-02-15T17:38:40;3.40;;;2.30;;
76138;SDS011;65138;50.946;7.074;2023-02-15T17:41:24;5.80;;;2.50;;
76138;SDS011;65138;50.946;7.074;2023-02-15T17:43:54;4.30;;;2.38;;
76138;SDS011;65138;50.946;7.074;2023-02-15T17:46:20;4.22;;;2.45;;
76138;SDS011;65138;50.946;7.074;2023-02-15T17:48:49;5.90;;;2.70;;
76138;SDS011;65138;50.946;7.074;2023-02-15T17:51:16;3.80;;;2.28;;
76138;SDS011;65138;50.946;7.074;2023-02-15T17:53:43;4.18;;;2.45;;